sensor_id;sensor_type;location;lat;lon;timestamp;temperature;humidity
5304;DHT22;2674;49.722;10.892;2023-07-30T00:02:20;17.50;99.90
5304;DHT22;2674;49.722;10.892;2023-07-30T00:04:47;17.40;99.90
5304;DHT22;2674;49.722;10.892;2023-07-30T00:07:13;17.40;99.90
5304;DHT22;2674;49.722;10.892;2023-07-30T00:09:40;17.40;99.90
5304;DHT22;2674;49.722;10.892;2023-07-30T00:12:07;17.40;99.90
5304;DHT22;2674;49.722;10.892;2023-07-30T00:14:33;17.40;99.90
5304;DHT22;2674;49.722;10.892;2023-07-30T00:16:59;17.40;99.90
5304;DHT22;2674;49.722;10.892;2023-07-30T00:19:25;17.40;99.90
5304;DHT22;2674;49.722;10.892;2023-07-30T00:21:51;17.40;99.90
5304;DHT22;2674;49.722;10.892;2023-07-30T00:24:16;17.40;99.90
5304;DHT22;2674;49.722;10.892;2023-07-30T00:26:42;17.40;99.90
5304;DHT22;2674;49.722;10.892;2023-07-30T00:29:08;17.40;99.90
5304;DHT22;2674;49.722;10.892;2023-07-30T00:31:34;17.50;99.90
5304;DHT22;2674;49.722;10.892;2023-07-30T00:34:00;17.50;99.90
5304;DHT22;2674;49.722;10.892;2023-07-30T00:36:26;17.50;99.90
5304;DHT22;2674;49.722;10.892;2023-07-30T00:38:52;17.60;99.90
5304;DHT22;2674;49.722;10.892;2023-07-30T00:41:17;17.40;99.90
5304;DHT22;2674;49.722;10.892;2023-07-30T00:43:43;17.60;99.90
5304;DHT22;2674;49.722;10.892;2023-07-30T00:46:09;17.60;99.90
5304;DHT22;2674;49.722;10.892;2023-07-30T00:48:35;17.60;99.90
5304;DHT22;2674;49.722;10.892;2023-07-30T00:51:01;17.60;99.90
5304;DHT22;2674;49.722;10.892;2023-07-30T00:53:28;17.70;99.90
5304;DHT22;2674;49.722;10.892;2023-07-30T00:55:54;17.70;99.90
5304;DHT22;2674;49.722;10.892;2023-07-30T00:58:23;17.70;99.90
5304;DHT22;2674;49.722;10.892;2023-07-30T01:00:51;17.60;99.90
5304;DHT22;2674;49.722;10.892;2023-07-30T01:03:18;17.70;99.90
5304;DHT22;2674;49.722;10.892;2023-07-30T01:05:45;17.70;99.90
5304;DHT22;2674;49.722;10.892;2023-07-30T01:08:11;17.70;99.90
5304;DHT22;2674;49.722;10.892;2023-07-30T01:10:38;17.70;99.90
5304;DHT22;2674;49.722;10.892;2023-07-30T01:13:04;17.70;99.90
5304;DHT22;2674;49.722;10.892;2023-07-30T01:15:31;17.70;99.90
5304;DHT22;2674;49.722;10.892;2023-07-30T01:17:57;17.70;99.90
5304;DHT22;2674;49.722;10.892;2023-07-30T01:20:23;17.70;99.90
5304;DHT22;2674;49.722;10.892;2023-07-30T01:22:49;17.60;99.90
5304;DHT22;2674;49.722;10.892;2023-07-30T01:25:15;17.60;99.90
5304;DHT22;2674;49.722;10.892;2023-07-30T01:27:46;17.60;99.90
5304;DHT22;2674;49.722;10.892;2023-07-30T01:30:18;17.60;99.90
5304;DHT22;2674;49.722;10.892;2023-07-30T01:32:49;17.70;99.90
5304;DHT22;2674;49.722;10.892;2023-07-30T01:35:21;17.60;99.90
5304;DHT22;2674;49.722;10.892;2023-07-30T01:37:49;17.60;99.90
5304;DHT22;2674;49.722;10.892;2023-07-30T01:40:15;17.60;99.90
5304;DHT22;2674;49.722;10.892;2023-07-30T01:42:42;17.70;99.90
5304;DHT22;2674;49.722;10.892;2023-07-30T01:45:07;17.70;99.90
5304;DHT22;2674;49.722;10.892;2023-07-30T01:47:33;17.70;99.90
5304;DHT22;2674;49.722;10.892;2023-07-30T01:49:59;17.70;99.90
5304;DHT22;2674;49.722;10.892;2023-07-30T01:52:26;17.70;99.90
5304;DHT22;2674;49.722;10.892;2023-07-30T01:54:51;17.70;99.90
5304;DHT22;2674;49.722;10.892;2023-07-30T01:57:17;17.70;99.90
5304;DHT22;2674;49.722;10.892;2023-07-30T01:59:43;17.70;99.90
5304;DHT22;2674;49.722;10.892;2023-07-30T02:02:09;17.70;99.90
5304;DHT22;2674;49.722;10.892;2023-07-30T02:04:34;17.70;99.90
5304;DHT22;2674;49.722;10.892;2023-07-30T02:07:00;17.60;99.90
5304;DHT22;2674;49.722;10.892;2023-07-30T02:09:26;17.60;99.90
5304;DHT22;2674;49.722;10.892;2023-07-30T02:11:52;17.60;99.90
5304;DHT22;2674;49.722;10.892;2023-07-30T02:14:18;17.60;99.90
5304;DHT22;2674;49.722;10.892;2023-07-30T02:16:44;17.60;99.90
5304;DHT22;2674;49.722;10.892;2023-07-30T02:19:10;17.60;99.90
5304;DHT22;2674;49.722;10.892;2023-07-30T02:21:36;17.60;99.90
5304;DHT22;2674;49.722;10.892;2023-07-30T02:24:04;17.60;99.90
5304;DHT22;2674;49.722;10.892;2023-07-30T02:26:35;17.60;99.90
5304;DHT22;2674;49.722;10.892;2023-07-30T02:29:01;17.70;99.90
5304;DHT22;2674;49.722;10.892;2023-07-30T02:31:27;17.70;99.90
5304;DHT22;2674;49.722;10.892;2023-07-30T02:33:53;17.70;99.90
5304;DHT22;2674;49.722;10.892;2023-07-30T02:36:18;17.70;99.90
5304;DHT22;2674;49.722;10.892;2023-07-30T02:38:44;17.70;99.90
5304;DHT22;2674;49.722;10.892;2023-07-30T02:41:10;17.70;99.90
5304;DHT22;2674;49.722;10.892;2023-07-30T02:43:36;17.70;99.90
5304;DHT22;2674;49.722;10.892;2023-07-30T02:46:02;17.70;99.90
5304;DHT22;2674;49.722;10.892;2023-07-30T02:48:28;17.70;99.90
5304;DHT22;2674;49.722;10.892;2023-07-30T02:50:53;17.60;99.90
5304;DHT22;2674;49.722;10.892;2023-07-30T02:53:19;17.60;99.90
5304;DHT22;2674;49.722;10.892;2023-07-30T02:55:45;17.60;99.90
5304;DHT22;2674;49.722;10.892;2023-07-30T02:58:11;17.60;99.90
5304;DHT22;2674;49.722;10.892;2023-07-30T03:00:37;17.60;99.90
5304;DHT22;2674;49.722;10.892;2023-07-30T03:03:03;17.60;99.90
5304;DHT22;2674;49.722;10.892;2023-07-30T03:05:29;17.60;99.90
5304;DHT22;2674;49.722;10.892;2023-07-30T03:07:55;17.60;99.90
5304;DHT22;2674;49.722;10.892;2023-07-30T03:10:21;17.60;99.90
5304;DHT22;2674;49.722;10.892;2023-07-30T03:12:46;17.60;99.90
5304;DHT22;2674;49.722;10.892;2023-07-30T03:15:12;17.50;99.90
5304;DHT22;2674;49.722;10.892;2023-07-30T03:17:38;17.50;99.90
5304;DHT22;2674;49.722;10.892;2023-07-30T03:20:04;17.50;99.90
5304;DHT22;2674;49.722;10.892;2023-07-30T03:22:31;17.50;99.90
5304;DHT22;2674;49.722;10.892;2023-07-30T03:24:56;17.40;99.90
5304;DHT22;2674;49.722;10.892;2023-07-30T03:27:22;17.40;99.90
5304;DHT22;2674;49.722;10.892;2023-07-30T03:29:48;17.40;99.90
5304;DHT22;2674;49.722;10.892;2023-07-30T03:32:14;17.40;99.90
5304;DHT22;2674;49.722;10.892;2023-07-30T03:34:39;17.40;99.90
5304;DHT22;2674;49.722;10.892;2023-07-30T03:37:05;17.40;99.90
5304;DHT22;2674;49.722;10.892;2023-07-30T03:39:31;17.40;99.90
5304;DHT22;2674;49.722;10.892;2023-07-30T03:41:57;17.40;99.90
5304;DHT22;2674;49.722;10.892;2023-07-30T03:44:22;17.30;99.90
5304;DHT22;2674;49.722;10.892;2023-07-30T03:46:48;17.30;99.90
5304;DHT22;2674;49.722;10.892;2023-07-30T03:49:14;17.30;99.90
5304;DHT22;2674;49.722;10.892;2023-07-30T03:51:40;17.30;99.90
5304;DHT22;2674;49.722;10.892;2023-07-30T03:54:06;17.30;99.90
5304;DHT22;2674;49.722;10.892;2023-07-30T03:56:31;17.40;99.90
5304;DHT22;2674;49.722;10.892;2023-07-30T03:58:57;17.30;99.90
5304;DHT22;2674;49.722;10.892;2023-07-30T04:01:23;17.30;99.90
5304;DHT22;2674;49.722;10.892;2023-07-30T04:03:49;17.40;99.90
5304;DHT22;2674;49.722;10.892;2023-07-30T04:06:15;17.40;99.90
5304;DHT22;2674;49.722;10.892;2023-07-30T04:08:40;17.40;99.90
5304;DHT22;2674;49.722;10.892;2023-07-30T04:11:06;17.40;99.90
5304;DHT22;2674;49.722;10.892;2023-07-30T04:13:32;17.40;99.90
5304;DHT22;2674;49.722;10.892;2023-07-30T04:15:58;17.50;99.90
5304;DHT22;2674;49.722;10.892;2023-07-30T04:18:24;17.50;99.90
5304;DHT22;2674;49.722;10.892;2023-07-30T04:20:49;17.50;99.90
5304;DHT22;2674;49.722;10.892;2023-07-30T04:23:15;17.50;99.90
5304;DHT22;2674;49.722;10.892;2023-07-30T04:25:41;17.50;99.90
5304;DHT22;2674;49.722;10.892;2023-07-30T04:28:07;17.50;99.90
5304;DHT22;2674;49.722;10.892;2023-07-30T04:30:33;17.50;99.90
5304;DHT22;2674;49.722;10.892;2023-07-30T04:32:58;17.50;99.90
5304;DHT22;2674;49.722;10.892;2023-07-30T04:35:24;17.60;99.90
5304;DHT22;2674;49.722;10.892;2023-07-30T04:37:50;17.60;99.90
5304;DHT22;2674;49.722;10.892;2023-07-30T04:40:16;17.60;99.90
5304;DHT22;2674;49.722;10.892;2023-07-30T04:42:42;17.60;99.90
5304;DHT22;2674;49.722;10.892;2023-07-30T04:45:08;17.60;99.90
5304;DHT22;2674;49.722;10.892;2023-07-30T04:47:34;17.60;99.90
5304;DHT22;2674;49.722;10.892;2023-07-30T04:49:59;17.60;99.90
5304;DHT22;2674;49.722;10.892;2023-07-30T04:52:25;17.60;99.90
5304;DHT22;2674;49.722;10.892;2023-07-30T04:54:51;17.60;99.90
5304;DHT22;2674;49.722;10.892;2023-07-30T04:57:17;17.70;99.90
5304;DHT22;2674;49.722;10.892;2023-07-30T04:59:42;17.70;99.90
5304;DHT22;2674;49.722;10.892;2023-07-30T05:02:08;17.70;99.90
5304;DHT22;2674;49.722;10.892;2023-07-30T05:04:34;17.80;99.90
5304;DHT22;2674;49.722;10.892;2023-07-30T05:07:00;17.90;99.90
5304;DHT22;2674;49.722;10.892;2023-07-30T05:09:25;18.10;99.90
5304;DHT22;2674;49.722;10.892;2023-07-30T05:11:51;18.40;99.90
5304;DHT22;2674;49.722;10.892;2023-07-30T05:14:17;18.50;99.90
5304;DHT22;2674;49.722;10.892;2023-07-30T05:16:43;18.50;99.90
5304;DHT22;2674;49.722;10.892;2023-07-30T05:19:09;18.60;99.90
5304;DHT22;2674;49.722;10.892;2023-07-30T05:21:38;18.60;99.90
5304;DHT22;2674;49.722;10.892;2023-07-30T05:24:04;18.80;99.90
5304;DHT22;2674;49.722;10.892;2023-07-30T05:26:30;19.10;99.90
5304;DHT22;2674;49.722;10.892;2023-07-30T05:28:55;19.20;99.90
5304;DHT22;2674;49.722;10.892;2023-07-30T05:31:21;19.20;99.90
5304;DHT22;2674;49.722;10.892;2023-07-30T05:33:47;19.20;99.90
5304;DHT22;2674;49.722;10.892;2023-07-30T05:36:13;19.10;99.90
5304;DHT22;2674;49.722;10.892;2023-07-30T05:38:39;19.00;99.90
5304;DHT22;2674;49.722;10.892;2023-07-30T05:41:04;19.00;99.90
5304;DHT22;2674;49.722;10.892;2023-07-30T05:43:30;18.90;99.90
5304;DHT22;2674;49.722;10.892;2023-07-30T05:45:56;18.80;99.90
5304;DHT22;2674;49.722;10.892;2023-07-30T05:48:22;18.80;99.90
5304;DHT22;2674;49.722;10.892;2023-07-30T05:50:47;18.70;99.90
5304;DHT22;2674;49.722;10.892;2023-07-30T05:53:14;18.70;99.90
5304;DHT22;2674;49.722;10.892;2023-07-30T05:55:40;18.60;99.90
5304;DHT22;2674;49.722;10.892;2023-07-30T05:58:05;18.70;99.90
5304;DHT22;2674;49.722;10.892;2023-07-30T06:00:31;18.70;99.90
5304;DHT22;2674;49.722;10.892;2023-07-30T06:02:57;18.70;99.90
5304;DHT22;2674;49.722;10.892;2023-07-30T06:05:23;18.80;99.90
5304;DHT22;2674;49.722;10.892;2023-07-30T06:07:49;18.80;99.90
5304;DHT22;2674;49.722;10.892;2023-07-30T06:10:15;18.90;99.90
5304;DHT22;2674;49.722;10.892;2023-07-30T06:12:41;19.00;99.90
5304;DHT22;2674;49.722;10.892;2023-07-30T06:15:09;19.20;99.90
5304;DHT22;2674;49.722;10.892;2023-07-30T06:17:35;19.10;99.90
5304;DHT22;2674;49.722;10.892;2023-07-30T06:20:01;19.10;99.90
5304;DHT22;2674;49.722;10.892;2023-07-30T06:22:31;19.10;99.90
5304;DHT22;2674;49.722;10.892;2023-07-30T06:24:57;19.10;99.90
5304;DHT22;2674;49.722;10.892;2023-07-30T06:27:23;19.00;99.90
5304;DHT22;2674;49.722;10.892;2023-07-30T06:29:49;19.00;99.90
5304;DHT22;2674;49.722;10.892;2023-07-30T06:32:15;19.00;99.90
5304;DHT22;2674;49.722;10.892;2023-07-30T06:34:41;19.10;99.90
5304;DHT22;2674;49.722;10.892;2023-07-30T06:37:07;19.20;99.90
5304;DHT22;2674;49.722;10.892;2023-07-30T06:39:33;19.30;99.90
5304;DHT22;2674;49.722;10.892;2023-07-30T06:41:58;19.30;99.90
5304;DHT22;2674;49.722;10.892;2023-07-30T06:44:24;19.40;99.90
5304;DHT22;2674;49.722;10.892;2023-07-30T06:46:51;19.50;99.90
5304;DHT22;2674;49.722;10.892;2023-07-30T06:49:16;19.60;99.90
5304;DHT22;2674;49.722;10.892;2023-07-30T06:51:42;19.70;54.00
5304;DHT22;2674;49.722;10.892;2023-07-30T06:54:08;19.70;1.00
5304;DHT22;2674;49.722;10.892;2023-07-30T06:56:34;19.80;11.10
5304;DHT22;2674;49.722;10.892;2023-07-30T06:59:01;19.90;16.00
5304;DHT22;2674;49.722;10.892;2023-07-30T07:01:27;20.00;1.00
5304;DHT22;2674;49.722;10.892;2023-07-30T07:03:53;20.00;1.00
5304;DHT22;2674;49.722;10.892;2023-07-30T07:06:18;20.10;1.00
5304;DHT22;2674;49.722;10.892;2023-07-30T07:08:44;20.20;1.00
5304;DHT22;2674;49.722;10.892;2023-07-30T07:11:10;20.40;1.00
5304;DHT22;2674;49.722;10.892;2023-07-30T07:13:36;20.60;1.00
5304;DHT22;2674;49.722;10.892;2023-07-30T07:16:02;20.80;1.00
5304;DHT22;2674;49.722;10.892;2023-07-30T07:18:28;21.10;1.00
5304;DHT22;2674;49.722;10.892;2023-07-30T07:20:54;21.20;1.00
5304;DHT22;2674;49.722;10.892;2023-07-30T07:23:20;21.30;1.00
5304;DHT22;2674;49.722;10.892;2023-07-30T07:25:46;21.40;1.00
5304;DHT22;2674;49.722;10.892;2023-07-30T07:28:12;21.50;1.00
5304;DHT22;2674;49.722;10.892;2023-07-30T07:30:38;21.60;1.00
5304;DHT22;2674;49.722;10.892;2023-07-30T07:33:04;21.60;1.00
5304;DHT22;2674;49.722;10.892;2023-07-30T07:35:31;21.70;99.90
5304;DHT22;2674;49.722;10.892;2023-07-30T07:37:57;21.70;99.90
5304;DHT22;2674;49.722;10.892;2023-07-30T07:40:23;22.00;99.90
5304;DHT22;2674;49.722;10.892;2023-07-30T07:42:48;22.20;99.90
5304;DHT22;2674;49.722;10.892;2023-07-30T07:45:14;22.30;99.90
5304;DHT22;2674;49.722;10.892;2023-07-30T07:47:40;22.30;73.30
5304;DHT22;2674;49.722;10.892;2023-07-30T07:50:06;22.20;1.00
5304;DHT22;2674;49.722;10.892;2023-07-30T07:52:32;22.20;1.00
5304;DHT22;2674;49.722;10.892;2023-07-30T07:54:58;22.10;99.90
5304;DHT22;2674;49.722;10.892;2023-07-30T07:57:24;22.00;1.00
5304;DHT22;2674;49.722;10.892;2023-07-30T07:59:50;21.90;1.00
5304;DHT22;2674;49.722;10.892;2023-07-30T08:02:16;21.90;1.00
5304;DHT22;2674;49.722;10.892;2023-07-30T08:04:42;21.80;1.00
5304;DHT22;2674;49.722;10.892;2023-07-30T08:07:08;21.90;1.00
5304;DHT22;2674;49.722;10.892;2023-07-30T08:09:34;21.90;99.90
5304;DHT22;2674;49.722;10.892;2023-07-30T08:12:00;21.90;99.90
5304;DHT22;2674;49.722;10.892;2023-07-30T08:14:26;21.80;1.00
5304;DHT22;2674;49.722;10.892;2023-07-30T08:16:52;21.70;1.00
5304;DHT22;2674;49.722;10.892;2023-07-30T08:19:18;21.60;99.90
5304;DHT22;2674;49.722;10.892;2023-07-30T08:21:44;21.50;1.00
5304;DHT22;2674;49.722;10.892;2023-07-30T08:24:10;21.50;1.00
5304;DHT22;2674;49.722;10.892;2023-07-30T08:26:36;21.40;99.90
5304;DHT22;2674;49.722;10.892;2023-07-30T08:29:01;21.40;99.90
5304;DHT22;2674;49.722;10.892;2023-07-30T08:31:27;21.40;1.00
5304;DHT22;2674;49.722;10.892;2023-07-30T08:33:53;21.30;99.90
5304;DHT22;2674;49.722;10.892;2023-07-30T08:36:19;21.40;1.00
5304;DHT22;2674;49.722;10.892;2023-07-30T08:38:44;21.40;1.00
5304;DHT22;2674;49.722;10.892;2023-07-30T08:41:15;21.50;1.00
5304;DHT22;2674;49.722;10.892;2023-07-30T08:43:40;21.50;1.00
5304;DHT22;2674;49.722;10.892;2023-07-30T08:46:06;21.60;1.00
5304;DHT22;2674;49.722;10.892;2023-07-30T08:48:32;21.70;1.00
5304;DHT22;2674;49.722;10.892;2023-07-30T08:50:58;21.80;99.90
5304;DHT22;2674;49.722;10.892;2023-07-30T08:53:26;21.80;99.90
5304;DHT22;2674;49.722;10.892;2023-07-30T08:55:54;21.90;1.00
5304;DHT22;2674;49.722;10.892;2023-07-30T08:58:22;22.00;1.00
5304;DHT22;2674;49.722;10.892;2023-07-30T09:00:49;22.00;1.00
5304;DHT22;2674;49.722;10.892;2023-07-30T09:03:17;22.00;99.90
5304;DHT22;2674;49.722;10.892;2023-07-30T09:05:43;22.00;1.00
5304;DHT22;2674;49.722;10.892;2023-07-30T09:08:09;22.10;99.90
5304;DHT22;2674;49.722;10.892;2023-07-30T09:10:37;22.20;99.90
5304;DHT22;2674;49.722;10.892;2023-07-30T09:13:03;22.30;1.00
5304;DHT22;2674;49.722;10.892;2023-07-30T09:15:34;22.40;1.00
5304;DHT22;2674;49.722;10.892;2023-07-30T09:18:01;22.60;1.00
5304;DHT22;2674;49.722;10.892;2023-07-30T09:20:27;22.70;1.00
5304;DHT22;2674;49.722;10.892;2023-07-30T09:22:56;22.80;1.00
5304;DHT22;2674;49.722;10.892;2023-07-30T09:25:22;23.00;99.90
5304;DHT22;2674;49.722;10.892;2023-07-30T09:27:50;23.10;99.90
5304;DHT22;2674;49.722;10.892;2023-07-30T09:30:25;23.10;1.00
5304;DHT22;2674;49.722;10.892;2023-07-30T09:32:57;23.20;1.00
5304;DHT22;2674;49.722;10.892;2023-07-30T09:35:25;23.30;1.00
5304;DHT22;2674;49.722;10.892;2023-07-30T09:38:01;23.50;1.00
5304;DHT22;2674;49.722;10.892;2023-07-30T09:40:35;23.60;9.00
5304;DHT22;2674;49.722;10.892;2023-07-30T09:43:05;23.50;1.00
5304;DHT22;2674;49.722;10.892;2023-07-30T09:45:34;23.40;1.00
5304;DHT22;2674;49.722;10.892;2023-07-30T09:48:04;23.50;99.90
5304;DHT22;2674;49.722;10.892;2023-07-30T09:50:32;23.50;68.30
5304;DHT22;2674;49.722;10.892;2023-07-30T09:52:59;23.40;57.50
5304;DHT22;2674;49.722;10.892;2023-07-30T09:55:26;23.40;99.90
5304;DHT22;2674;49.722;10.892;2023-07-30T09:57:52;23.30;99.90
5304;DHT22;2674;49.722;10.892;2023-07-30T10:00:18;23.30;1.00
5304;DHT22;2674;49.722;10.892;2023-07-30T10:02:46;23.30;99.90
5304;DHT22;2674;49.722;10.892;2023-07-30T10:05:20;23.30;1.00
5304;DHT22;2674;49.722;10.892;2023-07-30T10:08:05;23.40;99.90
5304;DHT22;2674;49.722;10.892;2023-07-30T10:10:33;23.40;99.90
5304;DHT22;2674;49.722;10.892;2023-07-30T10:13:06;23.30;99.90
5304;DHT22;2674;49.722;10.892;2023-07-30T10:15:37;23.40;99.90
5304;DHT22;2674;49.722;10.892;2023-07-30T10:18:05;23.40;99.90
5304;DHT22;2674;49.722;10.892;2023-07-30T10:20:31;23.50;99.90
5304;DHT22;2674;49.722;10.892;2023-07-30T10:23:01;23.50;99.90
5304;DHT22;2674;49.722;10.892;2023-07-30T10:25:43;23.50;99.90
5304;DHT22;2674;49.722;10.892;2023-07-30T10:28:33;23.50;99.90
5304;DHT22;2674;49.722;10.892;2023-07-30T10:31:07;23.50;99.90
5304;DHT22;2674;49.722;10.892;2023-07-30T10:33:51;23.40;1.00
5304;DHT22;2674;49.722;10.892;2023-07-30T10:36:34;23.40;99.90
5304;DHT22;2674;49.722;10.892;2023-07-30T10:39:11;23.30;99.90
5304;DHT22;2674;49.722;10.892;2023-07-30T10:41:38;23.30;99.90
5304;DHT22;2674;49.722;10.892;2023-07-30T10:44:04;23.20;99.90
5304;DHT22;2674;49.722;10.892;2023-07-30T10:46:29;23.20;99.90
5304;DHT22;2674;49.722;10.892;2023-07-30T10:48:55;23.00;99.90
5304;DHT22;2674;49.722;10.892;2023-07-30T10:51:21;22.60;1.00
5304;DHT22;2674;49.722;10.892;2023-07-30T10:53:50;22.10;99.90
5304;DHT22;2674;49.722;10.892;2023-07-30T10:56:20;21.70;99.90
5304;DHT22;2674;49.722;10.892;2023-07-30T10:58:51;21.60;1.00
5304;DHT22;2674;49.722;10.892;2023-07-30T11:01:17;21.70;1.00
5304;DHT22;2674;49.722;10.892;2023-07-30T11:03:43;21.80;42.30
5304;DHT22;2674;49.722;10.892;2023-07-30T11:06:13;22.00;1.00
5304;DHT22;2674;49.722;10.892;2023-07-30T11:08:41;22.10;1.00
5304;DHT22;2674;49.722;10.892;2023-07-30T11:11:09;22.30;99.90
5304;DHT22;2674;49.722;10.892;2023-07-30T11:13:43;22.40;1.00
5304;DHT22;2674;49.722;10.892;2023-07-30T11:16:12;22.50;1.00
5304;DHT22;2674;49.722;10.892;2023-07-30T11:18:39;22.50;95.70
5304;DHT22;2674;49.722;10.892;2023-07-30T11:21:13;22.50;15.70
5304;DHT22;2674;49.722;10.892;2023-07-30T11:23:40;22.50;99.90
5304;DHT22;2674;49.722;10.892;2023-07-30T11:26:14;22.50;1.00
5304;DHT22;2674;49.722;10.892;2023-07-30T11:28:41;22.40;1.00
5304;DHT22;2674;49.722;10.892;2023-07-30T11:33:41;22.30;1.00
5304;DHT22;2674;49.722;10.892;2023-07-30T11:36:12;22.20;1.00
5304;DHT22;2674;49.722;10.892;2023-07-30T11:38:39;22.20;1.00
5304;DHT22;2674;49.722;10.892;2023-07-30T11:41:06;22.10;1.00
5304;DHT22;2674;49.722;10.892;2023-07-30T11:43:37;22.10;1.00
5304;DHT22;2674;49.722;10.892;2023-07-30T11:46:16;22.10;1.00
5304;DHT22;2674;49.722;10.892;2023-07-30T11:48:45;22.10;1.00
5304;DHT22;2674;49.722;10.892;2023-07-30T11:51:25;22.20;1.00
5304;DHT22;2674;49.722;10.892;2023-07-30T11:56:39;22.50;1.00
5304;DHT22;2674;49.722;10.892;2023-07-30T11:59:07;22.70;1.00
5304;DHT22;2674;49.722;10.892;2023-07-30T12:01:35;23.20;1.00
5304;DHT22;2674;49.722;10.892;2023-07-30T12:04:03;23.40;1.00
5304;DHT22;2674;49.722;10.892;2023-07-30T12:06:43;23.50;99.90
5304;DHT22;2674;49.722;10.892;2023-07-30T12:11:58;23.80;1.00
5304;DHT22;2674;49.722;10.892;2023-07-30T12:14:27;23.90;1.00
5304;DHT22;2674;49.722;10.892;2023-07-30T12:16:58;24.00;1.00
5304;DHT22;2674;49.722;10.892;2023-07-30T12:19:24;24.20;1.00
5304;DHT22;2674;49.722;10.892;2023-07-30T12:21:49;24.30;1.00
5304;DHT22;2674;49.722;10.892;2023-07-30T12:24:15;24.30;1.00
5304;DHT22;2674;49.722;10.892;2023-07-30T12:26:41;24.50;1.00
5304;DHT22;2674;49.722;10.892;2023-07-30T12:29:07;24.70;1.00
5304;DHT22;2674;49.722;10.892;2023-07-30T12:31:33;24.90;1.00
5304;DHT22;2674;49.722;10.892;2023-07-30T12:33:59;25.10;1.00
5304;DHT22;2674;49.722;10.892;2023-07-30T12:36:24;25.10;1.00
5304;DHT22;2674;49.722;10.892;2023-07-30T12:38:52;25.10;1.00
5304;DHT22;2674;49.722;10.892;2023-07-30T12:41:19;25.20;1.00
5304;DHT22;2674;49.722;10.892;2023-07-30T12:43:52;25.30;1.00
5304;DHT22;2674;49.722;10.892;2023-07-30T12:46:18;25.30;1.00
5304;DHT22;2674;49.722;10.892;2023-07-30T12:48:44;25.30;1.00
5304;DHT22;2674;49.722;10.892;2023-07-30T12:51:10;25.50;1.00
5304;DHT22;2674;49.722;10.892;2023-07-30T12:53:36;25.60;1.00
5304;DHT22;2674;49.722;10.892;2023-07-30T12:56:02;25.60;1.00
5304;DHT22;2674;49.722;10.892;2023-07-30T12:58:28;25.40;1.00
5304;DHT22;2674;49.722;10.892;2023-07-30T13:00:53;24.90;1.00
5304;DHT22;2674;49.722;10.892;2023-07-30T13:03:19;24.30;1.00
5304;DHT22;2674;49.722;10.892;2023-07-30T13:05:45;23.70;1.00
5304;DHT22;2674;49.722;10.892;2023-07-30T13:08:11;23.40;1.00
5304;DHT22;2674;49.722;10.892;2023-07-30T13:10:37;23.10;1.00
5304;DHT22;2674;49.722;10.892;2023-07-30T13:13:03;23.00;1.00
5304;DHT22;2674;49.722;10.892;2023-07-30T13:15:29;22.90;1.00
5304;DHT22;2674;49.722;10.892;2023-07-30T13:17:54;22.80;1.00
5304;DHT22;2674;49.722;10.892;2023-07-30T13:20:20;22.70;1.00
5304;DHT22;2674;49.722;10.892;2023-07-30T13:22:46;22.60;1.00
5304;DHT22;2674;49.722;10.892;2023-07-30T13:25:12;22.40;1.00
5304;DHT22;2674;49.722;10.892;2023-07-30T13:27:38;22.40;1.00
5304;DHT22;2674;49.722;10.892;2023-07-30T13:30:04;22.30;1.00
5304;DHT22;2674;49.722;10.892;2023-07-30T13:32:30;22.20;1.00
5304;DHT22;2674;49.722;10.892;2023-07-30T13:34:56;22.20;1.00
5304;DHT22;2674;49.722;10.892;2023-07-30T13:37:22;22.20;1.00
5304;DHT22;2674;49.722;10.892;2023-07-30T13:39:47;22.30;1.00
5304;DHT22;2674;49.722;10.892;2023-07-30T13:42:13;22.40;1.00
5304;DHT22;2674;49.722;10.892;2023-07-30T13:44:39;22.50;1.00
5304;DHT22;2674;49.722;10.892;2023-07-30T13:47:05;22.70;1.00
5304;DHT22;2674;49.722;10.892;2023-07-30T13:49:31;23.10;1.00
5304;DHT22;2674;49.722;10.892;2023-07-30T13:51:57;23.20;1.00
5304;DHT22;2674;49.722;10.892;2023-07-30T13:54:23;23.10;1.00
5304;DHT22;2674;49.722;10.892;2023-07-30T13:56:48;22.90;1.00
5304;DHT22;2674;49.722;10.892;2023-07-30T13:59:14;22.70;1.00
5304;DHT22;2674;49.722;10.892;2023-07-30T14:01:40;22.50;1.00
5304;DHT22;2674;49.722;10.892;2023-07-30T14:04:06;22.50;1.00
5304;DHT22;2674;49.722;10.892;2023-07-30T14:06:32;22.40;1.00
5304;DHT22;2674;49.722;10.892;2023-07-30T14:08:58;22.60;1.00
5304;DHT22;2674;49.722;10.892;2023-07-30T14:11:28;22.70;1.00
5304;DHT22;2674;49.722;10.892;2023-07-30T14:13:54;22.80;1.00
5304;DHT22;2674;49.722;10.892;2023-07-30T14:16:20;22.80;1.00
5304;DHT22;2674;49.722;10.892;2023-07-30T14:18:45;22.90;1.00
5304;DHT22;2674;49.722;10.892;2023-07-30T14:21:11;22.90;1.00
5304;DHT22;2674;49.722;10.892;2023-07-30T14:23:39;22.90;1.00
5304;DHT22;2674;49.722;10.892;2023-07-30T14:26:05;22.90;1.00
5304;DHT22;2674;49.722;10.892;2023-07-30T14:28:30;23.00;1.00
5304;DHT22;2674;49.722;10.892;2023-07-30T14:30:56;23.00;1.00
5304;DHT22;2674;49.722;10.892;2023-07-30T14:33:22;22.90;1.00
5304;DHT22;2674;49.722;10.892;2023-07-30T14:35:48;22.80;1.00
5304;DHT22;2674;49.722;10.892;2023-07-30T14:38:14;22.90;1.00
5304;DHT22;2674;49.722;10.892;2023-07-30T14:40:39;22.90;1.00
5304;DHT22;2674;49.722;10.892;2023-07-30T14:43:08;22.90;1.00
5304;DHT22;2674;49.722;10.892;2023-07-30T14:45:33;22.90;1.00
5304;DHT22;2674;49.722;10.892;2023-07-30T14:47:59;22.90;1.00
5304;DHT22;2674;49.722;10.892;2023-07-30T14:50:26;22.90;1.00
5304;DHT22;2674;49.722;10.892;2023-07-30T14:52:53;22.80;1.00
5304;DHT22;2674;49.722;10.892;2023-07-30T14:55:19;22.90;1.00
5304;DHT22;2674;49.722;10.892;2023-07-30T14:57:44;22.90;1.00
5304;DHT22;2674;49.722;10.892;2023-07-30T15:00:11;22.90;1.00
5304;DHT22;2674;49.722;10.892;2023-07-30T15:02:40;23.10;1.00
5304;DHT22;2674;49.722;10.892;2023-07-30T15:05:06;23.20;1.00
5304;DHT22;2674;49.722;10.892;2023-07-30T15:07:33;23.20;1.00
5304;DHT22;2674;49.722;10.892;2023-07-30T15:09:59;23.20;1.00
5304;DHT22;2674;49.722;10.892;2023-07-30T15:12:25;23.00;1.00
5304;DHT22;2674;49.722;10.892;2023-07-30T15:14:51;23.00;1.00
5304;DHT22;2674;49.722;10.892;2023-07-30T15:17:17;22.90;1.00
5304;DHT22;2674;49.722;10.892;2023-07-30T15:19:43;22.50;1.00
5304;DHT22;2674;49.722;10.892;2023-07-30T15:22:12;22.60;1.00
5304;DHT22;2674;49.722;10.892;2023-07-30T15:24:38;22.70;1.00
5304;DHT22;2674;49.722;10.892;2023-07-30T15:27:04;22.70;1.00
5304;DHT22;2674;49.722;10.892;2023-07-30T15:29:30;22.90;1.00
5304;DHT22;2674;49.722;10.892;2023-07-30T15:31:56;23.10;1.00
5304;DHT22;2674;49.722;10.892;2023-07-30T15:34:22;23.30;1.00
5304;DHT22;2674;49.722;10.892;2023-07-30T15:36:48;23.20;1.00
5304;DHT22;2674;49.722;10.892;2023-07-30T15:39:14;23.10;1.00
5304;DHT22;2674;49.722;10.892;2023-07-30T15:41:40;23.20;1.00
5304;DHT22;2674;49.722;10.892;2023-07-30T15:44:06;23.10;1.00
5304;DHT22;2674;49.722;10.892;2023-07-30T15:46:31;22.90;1.00
5304;DHT22;2674;49.722;10.892;2023-07-30T15:48:57;22.70;1.00
5304;DHT22;2674;49.722;10.892;2023-07-30T15:51:23;22.80;1.00
5304;DHT22;2674;49.722;10.892;2023-07-30T15:53:51;22.80;1.00
5304;DHT22;2674;49.722;10.892;2023-07-30T15:56:16;22.90;1.00
5304;DHT22;2674;49.722;10.892;2023-07-30T15:58:45;22.90;1.00